createdAt,value
2022-12-18T00:02:35.360Z,18.38
2022-12-18T00:06:21.558Z,14.57
2022-12-18T00:10:04.524Z,15.30
2022-12-18T00:13:48.419Z,17.87
2022-12-18T00:17:30.384Z,17.87
2022-12-18T00:21:13.651Z,45.43
2022-12-18T00:24:55.716Z,16.00
2022-12-18T00:28:38.477Z,16.97
2022-12-18T00:32:20.493Z,18.60
2022-12-18T00:36:07.378Z,12.13
2022-12-18T00:39:50.012Z,13.17
2022-12-18T00:43:35.200Z,12.40
2022-12-18T00:47:18.967Z,11.17
2022-12-18T00:51:03.686Z,25.50
2022-12-18T00:54:46.044Z,15.63
2022-12-18T00:58:29.157Z,12.13
2022-12-18T01:02:11.244Z,11.60
2022-12-18T01:05:53.240Z,21.57
2022-12-18T01:09:35.929Z,13.10
2022-12-18T01:13:18.069Z,17.10
2022-12-18T01:17:00.172Z,37.93
2022-12-18T01:20:42.396Z,20.10
2022-12-18T01:24:24.438Z,20.27
2022-12-18T01:28:06.434Z,14.50
2022-12-18T01:31:48.561Z,51.73
2022-12-18T01:35:30.643Z,27.17
2022-12-18T01:39:15.041Z,39.07
2022-12-18T01:42:56.999Z,14.73
2022-12-18T01:46:38.930Z,12.63
2022-12-18T01:50:42.850Z,11.47
2022-12-18T01:54:24.801Z,12.43
2022-12-18T01:58:07.014Z,14.37
2022-12-18T02:01:49.193Z,11.43
2022-12-18T02:05:39.320Z,17.70
2022-12-18T02:09:33.228Z,32.37
2022-12-18T02:13:38.704Z,12.20
2022-12-18T02:17:29.588Z,11.50
2022-12-18T02:21:24.391Z,11.73
2022-12-18T02:25:54.308Z,12.67
2022-12-18T02:29:50.539Z,11.77
2022-12-18T02:33:37.265Z,11.67
2022-12-18T02:37:21.364Z,10.90
2022-12-18T02:41:04.726Z,10.70
2022-12-18T02:44:49.345Z,9.30
2022-12-18T02:48:34.906Z,9.50
2022-12-18T02:52:29.911Z,8.83
2022-12-18T02:56:19.816Z,8.23
2022-12-18T03:00:11.554Z,8.37
2022-12-18T03:03:59.617Z,8.63
2022-12-18T03:07:51.751Z,9.97
2022-12-18T03:11:56.497Z,9.73
2022-12-18T03:15:50.744Z,9.10
2022-12-18T03:19:34.219Z,8.67
2022-12-18T03:23:26.401Z,7.07
2022-12-18T03:27:12.898Z,8.63
2022-12-18T03:31:00.275Z,7.53
2022-12-18T03:34:44.194Z,8.10
2022-12-18T03:38:26.229Z,8.80
2022-12-18T03:42:31.609Z,6.80
2022-12-18T03:46:20.488Z,6.47
2022-12-18T03:50:18.384Z,6.77
2022-12-18T03:54:03.768Z,7.80
2022-12-18T03:57:47.143Z,7.60
2022-12-18T04:01:36.027Z,7.60
2022-12-18T04:05:19.505Z,7.10
2022-12-18T04:09:01.935Z,7.43
2022-12-18T04:12:44.152Z,6.97
2022-12-18T04:16:27.193Z,7.93
2022-12-18T04:20:09.599Z,8.97
2022-12-18T04:23:51.507Z,7.33
2022-12-18T04:27:33.534Z,7.43
2022-12-18T04:31:15.734Z,7.37
2022-12-18T04:34:57.802Z,7.37
2022-12-18T04:38:39.990Z,7.43
2022-12-18T04:42:21.901Z,7.83
2022-12-18T04:46:05.732Z,6.47
2022-12-18T04:49:47.740Z,6.67
2022-12-18T04:53:29.753Z,6.37
2022-12-18T04:57:11.725Z,7.43
2022-12-18T05:00:53.620Z,7.17
2022-12-18T05:04:35.585Z,7.37
2022-12-18T05:08:17.572Z,6.90
2022-12-18T05:11:59.465Z,6.43
2022-12-18T05:15:42.961Z,6.97
2022-12-18T05:19:24.901Z,7.10
2022-12-18T05:23:06.819Z,6.47
2022-12-18T05:26:48.988Z,7.47
2022-12-18T05:30:30.985Z,7.93
2022-12-18T05:34:12.951Z,7.60
2022-12-18T05:37:54.989Z,7.20
2022-12-18T05:41:37.191Z,6.80
2022-12-18T05:45:19.140Z,7.80
2022-12-18T05:49:02.324Z,6.97
2022-12-18T05:52:44.303Z,17.77
2022-12-18T05:56:26.205Z,9.27
2022-12-18T06:00:09.059Z,11.13
2022-12-18T06:03:51.682Z,9.90
2022-12-18T06:07:33.827Z,10.47
2022-12-18T06:11:19.431Z,11.27
2022-12-18T06:15:01.710Z,10.43
2022-12-18T06:18:43.645Z,10.50
2022-12-18T06:22:26.071Z,10.33
2022-12-18T06:26:10.356Z,10.30
2022-12-18T06:29:52.445Z,10.00
2022-12-18T06:33:35.783Z,10.40
2022-12-18T06:37:17.819Z,11.53
2022-12-18T06:40:59.805Z,9.60
2022-12-18T06:44:41.911Z,10.40
2022-12-18T06:48:23.827Z,12.67
2022-12-18T06:52:06.241Z,9.63
2022-12-18T06:55:48.437Z,10.80
2022-12-18T06:59:30.506Z,10.27
2022-12-18T07:03:12.483Z,9.90
2022-12-18T07:06:54.513Z,10.43
2022-12-18T07:10:47.479Z,10.63
2022-12-18T07:14:30.969Z,10.60
2022-12-18T07:18:12.953Z,10.10
2022-12-18T07:21:55.642Z,9.57
2022-12-18T07:25:38.234Z,9.37
2022-12-18T07:29:20.259Z,10.23
2022-12-18T07:33:02.454Z,9.07
2022-12-18T07:36:44.707Z,9.37
2022-12-18T07:40:26.652Z,10.33
2022-12-18T07:44:12.079Z,8.97
2022-12-18T07:47:54.202Z,8.87
2022-12-18T07:51:36.514Z,9.43
2022-12-18T07:55:18.532Z,9.60
2022-12-18T07:59:03.686Z,9.33
2022-12-18T08:02:45.861Z,8.33
2022-12-18T08:06:28.083Z,8.67
2022-12-18T08:10:10.396Z,8.23
2022-12-18T08:13:52.474Z,9.27
2022-12-18T08:17:34.595Z,8.07
2022-12-18T08:21:24.172Z,8.43
2022-12-18T08:25:06.849Z,8.77
2022-12-18T08:28:49.747Z,8.20
2022-12-18T08:32:34.186Z,8.97
2022-12-18T08:36:16.130Z,8.87
2022-12-18T08:39:59.219Z,9.20
2022-12-18T08:44:00.029Z,9.13
2022-12-18T08:47:42.105Z,9.63
2022-12-18T08:51:24.387Z,10.30
2022-12-18T08:55:07.112Z,9.87
2022-12-18T08:58:52.182Z,9.37
2022-12-18T09:02:34.380Z,9.27
2022-12-18T09:06:18.577Z,9.57
2022-12-18T09:10:00.595Z,9.70
2022-12-18T09:13:42.928Z,10.60
2022-12-18T09:17:25.161Z,9.87
2022-12-18T09:21:20.111Z,9.97
2022-12-18T09:25:02.105Z,9.50
2022-12-18T09:28:44.874Z,9.10
2022-12-18T09:32:27.048Z,9.83
2022-12-18T09:36:12.558Z,10.10
2022-12-18T09:39:54.563Z,9.23
2022-12-18T09:43:50.874Z,10.40
2022-12-18T09:47:38.737Z,11.13
2022-12-18T09:51:28.964Z,11.27
2022-12-18T09:55:23.292Z,11.97
2022-12-18T09:59:06.373Z,10.33
2022-12-18T10:02:49.246Z,11.67
2022-12-18T10:06:44.738Z,11.83
2022-12-18T10:10:39.319Z,11.60
2022-12-18T10:14:24.006Z,10.60
2022-12-18T10:18:33.527Z,11.80
2022-12-18T10:22:50.074Z,11.40
2022-12-18T10:26:34.166Z,12.23
2022-12-18T10:30:21.058Z,12.00
2022-12-18T10:34:05.556Z,12.10
2022-12-18T10:38:07.746Z,12.13
2022-12-18T10:41:50.232Z,12.73
2022-12-18T10:45:32.337Z,13.40
2022-12-18T10:49:31.173Z,12.27
2022-12-18T10:53:21.509Z,13.67
2022-12-18T10:57:38.132Z,12.97
2022-12-18T11:01:23.700Z,12.37
2022-12-18T11:05:31.290Z,12.50
2022-12-18T11:09:27.232Z,13.13
2022-12-18T11:13:25.291Z,12.77
2022-12-18T11:17:25.969Z,11.57
2022-12-18T11:21:12.959Z,11.47
2022-12-18T11:29:19.202Z,9.90
2022-12-18T11:33:11.734Z,11.87
2022-12-18T11:36:54.293Z,7.87
2022-12-18T11:40:43.945Z,10.50
2022-12-18T11:44:32.114Z,9.50
2022-12-18T11:48:40.533Z,8.63
2022-12-18T11:52:24.648Z,9.60
2022-12-18T11:56:36.377Z,8.43
2022-12-18T12:00:20.953Z,8.03
2022-12-18T12:04:37.933Z,7.40
2022-12-18T12:09:03.903Z,7.80
2022-12-18T12:13:04.517Z,5.63
2022-12-18T12:17:12.204Z,5.20
2022-12-18T12:21:16.193Z,4.60
2022-12-18T12:25:34.237Z,4.80
2022-12-18T12:29:35.126Z,4.77
2022-12-18T12:33:32.561Z,4.50
2022-12-18T12:37:34.569Z,4.50
2022-12-18T12:41:41.506Z,4.83
2022-12-18T12:45:36.011Z,3.90
2022-12-18T12:49:25.659Z,3.63
2022-12-18T12:53:18.618Z,3.43
2022-12-18T12:57:28.169Z,3.53
2022-12-18T13:01:33.891Z,2.77
2022-12-18T13:05:31.509Z,3.40
2022-12-18T13:09:14.484Z,8.40
2022-12-18T13:13:08.975Z,3.10
2022-12-18T13:16:52.036Z,2.50
2022-12-18T13:20:40.041Z,2.37
2022-12-18T13:24:32.238Z,2.87
2022-12-18T13:28:17.445Z,2.43
2022-12-18T13:32:02.654Z,1.87
2022-12-18T13:35:47.898Z,1.50
2022-12-18T13:39:36.963Z,1.57
2022-12-18T13:43:20.831Z,1.70
2022-12-18T13:47:05.336Z,1.80
2022-12-18T13:50:56.333Z,1.60
2022-12-18T13:54:41.637Z,1.50
2022-12-18T13:58:24.274Z,2.07
2022-12-18T14:02:17.754Z,1.87
2022-12-18T14:06:09.563Z,2.13
2022-12-18T14:10:12.636Z,1.77
2022-12-18T14:14:02.028Z,2.20
2022-12-18T14:17:45.193Z,2.00
2022-12-18T14:21:34.142Z,2.40
2022-12-18T14:25:24.991Z,1.93
2022-12-18T14:29:28.733Z,2.20
2022-12-18T14:33:17.390Z,1.87
2022-12-18T14:37:00.365Z,1.80
2022-12-18T14:40:42.578Z,1.30
2022-12-18T14:44:25.363Z,1.70
2022-12-18T14:48:09.309Z,1.50
2022-12-18T14:52:05.058Z,2.15
2022-12-18T14:55:49.483Z,2.23
2022-12-18T14:59:33.522Z,1.57
2022-12-18T15:03:21.232Z,2.60
2022-12-18T15:07:12.303Z,1.70
2022-12-18T15:10:54.352Z,1.87
2022-12-18T15:14:42.732Z,1.57
2022-12-18T15:18:34.383Z,1.20
2022-12-18T15:22:32.046Z,1.20
2022-12-18T15:26:17.006Z,1.80
2022-12-18T15:30:05.251Z,2.00
2022-12-18T15:34:08.315Z,1.90
2022-12-18T15:37:52.197Z,1.60
2022-12-18T15:41:36.796Z,1.63
2022-12-18T15:45:26.653Z,1.57
2022-12-18T15:49:10.496Z,1.80
2022-12-18T15:53:00.795Z,1.20
2022-12-18T15:57:03.390Z,2.33
2022-12-18T16:00:46.799Z,1.60
2022-12-18T16:04:32.788Z,1.80
2022-12-18T16:08:17.417Z,2.75
2022-12-18T16:12:02.208Z,3.07
2022-12-18T16:15:44.463Z,2.77
2022-12-18T16:19:27.080Z,3.87
2022-12-18T16:23:12.584Z,3.30
2022-12-18T16:27:01.524Z,2.60
2022-12-18T16:30:44.478Z,3.10
2022-12-18T16:34:35.465Z,3.70
2022-12-18T16:38:27.132Z,3.40
2022-12-18T16:42:21.349Z,2.33
2022-12-18T16:46:04.089Z,3.13
2022-12-18T16:49:51.917Z,2.67
2022-12-18T16:53:54.371Z,2.63
2022-12-18T16:57:38.359Z,2.10
2022-12-18T17:01:21.120Z,2.63
2022-12-18T17:05:03.321Z,3.47
2022-12-18T17:08:45.382Z,2.87
2022-12-18T17:12:28.419Z,2.60
2022-12-18T17:16:10.659Z,2.73
2022-12-18T17:19:57.748Z,3.17
2022-12-18T17:23:40.533Z,3.97
2022-12-18T17:27:22.773Z,4.60
2022-12-18T17:31:23.998Z,3.43
2022-12-18T17:35:08.126Z,3.20
2022-12-18T17:39:09.243Z,3.07
2022-12-18T17:42:59.243Z,3.57
2022-12-18T17:46:42.956Z,3.73
2022-12-18T17:50:30.020Z,3.10
2022-12-18T17:54:15.204Z,2.87
2022-12-18T17:57:59.520Z,2.93
2022-12-18T18:01:45.726Z,2.90
2022-12-18T18:05:30.700Z,3.40
2022-12-18T18:09:16.769Z,3.47
2022-12-18T18:17:05.430Z,3.70
2022-12-18T18:20:47.868Z,3.33
2022-12-18T18:24:30.260Z,4.13
2022-12-18T18:28:12.327Z,3.70
2022-12-18T18:31:54.568Z,4.07
2022-12-18T18:35:58.596Z,4.80
2022-12-18T18:39:40.899Z,4.23
2022-12-18T18:43:25.841Z,4.57
2022-12-18T18:47:09.619Z,5.40
2022-12-18T18:51:04.447Z,3.30
2022-12-18T18:55:11.750Z,3.13
2022-12-18T18:58:52.099Z,2.63
2022-12-18T19:02:34.425Z,2.80
2022-12-18T19:06:25.346Z,3.40
2022-12-18T19:10:08.584Z,2.20
2022-12-18T19:13:52.201Z,2.97
2022-12-18T19:17:34.816Z,2.43
2022-12-18T19:21:19.423Z,3.20
2022-12-18T19:25:01.601Z,2.00
2022-12-18T19:28:44.842Z,3.00
2022-12-18T19:32:27.115Z,3.00
2022-12-18T19:36:21.646Z,2.80
2022-12-18T19:40:07.254Z,2.60
2022-12-18T19:43:55.529Z,2.90
2022-12-18T19:47:38.820Z,3.00
2022-12-18T19:51:24.632Z,2.37
2022-12-18T19:55:09.154Z,3.00
2022-12-18T19:58:51.663Z,4.10
2022-12-18T20:02:37.218Z,2.10
2022-12-18T20:06:35.173Z,2.17
2022-12-18T20:10:17.411Z,1.77
2022-12-18T20:14:02.342Z,2.30
2022-12-18T20:17:47.256Z,2.50
2022-12-18T20:21:29.578Z,1.70
2022-12-18T20:25:11.669Z,2.33
2022-12-18T20:28:55.962Z,1.83
2022-12-18T20:32:40.531Z,2.03
2022-12-18T20:36:23.504Z,1.57
2022-12-18T20:40:07.286Z,1.50
2022-12-18T20:43:51.152Z,1.93
2022-12-18T20:47:33.186Z,1.70
2022-12-18T20:51:19.802Z,1.60
2022-12-18T20:55:06.677Z,1.93
2022-12-18T20:58:55.223Z,1.73
2022-12-18T21:02:37.769Z,1.40
2022-12-18T21:06:22.810Z,1.33
2022-12-18T21:10:06.182Z,1.70
2022-12-18T21:13:48.622Z,1.57
2022-12-18T21:17:30.737Z,1.90
2022-12-18T21:21:19.640Z,2.00
2022-12-18T21:25:10.089Z,1.93
2022-12-18T21:28:57.177Z,2.43
2022-12-18T21:32:40.524Z,2.40
2022-12-18T21:36:25.010Z,2.20
2022-12-18T21:40:08.474Z,2.23
2022-12-18T21:44:06.882Z,2.77
2022-12-18T21:47:49.188Z,2.03
2022-12-18T21:51:32.581Z,2.37
2022-12-18T21:55:16.632Z,1.97
2022-12-18T21:58:58.816Z,3.23
2022-12-18T22:02:41.055Z,1.80
2022-12-18T22:06:25.180Z,1.87
2022-12-18T22:10:07.827Z,2.30
2022-12-18T22:13:50.438Z,1.83
2022-12-18T22:17:37.055Z,2.20
2022-12-18T22:21:34.594Z,1.83
2022-12-18T22:25:17.123Z,1.80
2022-12-18T22:29:17.716Z,1.80
2022-12-18T22:33:00.081Z,1.30
2022-12-18T22:36:44.848Z,1.50
2022-12-18T22:40:28.114Z,1.80
2022-12-18T22:44:10.946Z,1.60
2022-12-18T22:47:55.364Z,1.77
2022-12-18T22:51:37.319Z,1.63
2022-12-18T22:55:19.400Z,1.47
2022-12-18T22:59:01.444Z,1.50
2022-12-18T23:02:45.709Z,1.70
2022-12-18T23:06:28.638Z,1.17
2022-12-18T23:10:10.856Z,1.37
2022-12-18T23:13:54.149Z,1.00
2022-12-18T23:17:39.772Z,1.13
2022-12-18T23:21:23.423Z,0.70
2022-12-18T23:25:09.801Z,1.27
2022-12-18T23:28:55.278Z,1.08
2022-12-18T23:32:41.698Z,0.83
2022-12-18T23:40:08.550Z,0.70
2022-12-18T23:43:51.704Z,0.70
2022-12-18T23:47:33.724Z,0.90
2022-12-18T23:51:18.207Z,0.70
2022-12-18T23:55:01.235Z,1.17
2022-12-18T23:58:46.203Z,0.60
